sensor_id;sensor_type;location;lat;lon;timestamp;P1;durP1;ratioP1;P2;durP2;ratioP2
62258;SDS011;48241;48.824;10.102;2023-08-17T00:00:24;5.65;;;4.22;;
62258;SDS011;48241;48.824;10.102;2023-08-17T00:02:49;5.53;;;4.10;;
62258;SDS011;48241;48.824;10.102;2023-08-17T00:05:15;4.90;;;3.97;;
62258;SDS011;48241;48.824;10.102;2023-08-17T00:07:40;5.10;;;3.97;;
62258;SDS011;48241;48.824;10.102;2023-08-17T00:10:06;6.75;;;4.18;;
62258;SDS011;48241;48.824;10.102;2023-08-17T00:12:32;5.25;;;3.90;;
62258;SDS011;48241;48.824;10.102;2023-08-17T00:14:57;4.90;;;3.55;;
62258;SDS011;48241;48.824;10.102;2023-08-17T00:17:23;4.32;;;3.63;;
62258;SDS011;48241;48.824;10.102;2023-08-17T00:19:48;4.40;;;3.22;;
62258;SDS011;48241;48.824;10.102;2023-08-17T00:22:15;3.55;;;3.05;;
62258;SDS011;48241;48.824;10.102;2023-08-17T00:24:41;7.40;;;3.50;;
62258;SDS011;48241;48.824;10.102;2023-08-17T00:27:09;4.13;;;3.30;;
62258;SDS011;48241;48.824;10.102;2023-08-17T00:29:35;5.00;;;3.40;;
62258;SDS011;48241;48.824;10.102;2023-08-17T00:32:01;6.30;;;3.30;;
62258;SDS011;48241;48.824;10.102;2023-08-17T00:34:27;5.03;;;3.58;;
62258;SDS011;48241;48.824;10.102;2023-08-17T00:36:53;5.13;;;3.40;;
62258;SDS011;48241;48.824;10.102;2023-08-17T00:39:18;4.20;;;3.25;;
62258;SDS011;48241;48.824;10.102;2023-08-17T00:41:44;7.47;;;3.65;;
62258;SDS011;48241;48.824;10.102;2023-08-17T00:44:10;3.67;;;3.38;;
62258;SDS011;48241;48.824;10.102;2023-08-17T00:46:36;4.53;;;3.28;;
62258;SDS011;48241;48.824;10.102;2023-08-17T00:49:03;3.80;;;3.15;;
62258;SDS011;48241;48.824;10.102;2023-08-17T00:51:29;4.93;;;3.90;;
62258;SDS011;48241;48.824;10.102;2023-08-17T00:53:57;7.22;;;3.63;;
62258;SDS011;48241;48.824;10.102;2023-08-17T00:56:23;7.78;;;4.10;;
62258;SDS011;48241;48.824;10.102;2023-08-17T00:58:49;5.80;;;3.70;;
62258;SDS011;48241;48.824;10.102;2023-08-17T01:01:16;4.68;;;3.70;;
62258;SDS011;48241;48.824;10.102;2023-08-17T01:03:42;5.00;;;3.95;;
62258;SDS011;48241;48.824;10.102;2023-08-17T01:06:08;7.90;;;4.20;;
62258;SDS011;48241;48.824;10.102;2023-08-17T01:08:34;4.90;;;4.40;;
62258;SDS011;48241;48.824;10.102;2023-08-17T01:16:29;5.90;;;3.78;;
62258;SDS011;48241;48.824;10.102;2023-08-17T01:18:59;5.47;;;4.13;;
62258;SDS011;48241;48.824;10.102;2023-08-17T01:21:29;6.20;;;3.85;;
62258;SDS011;48241;48.824;10.102;2023-08-17T01:24:06;5.22;;;3.80;;
62258;SDS011;48241;48.824;10.102;2023-08-17T01:26:32;4.47;;;3.72;;
62258;SDS011;48241;48.824;10.102;2023-08-17T01:28:57;4.47;;;3.63;;
62258;SDS011;48241;48.824;10.102;2023-08-17T01:31:35;7.75;;;3.90;;
62258;SDS011;48241;48.824;10.102;2023-08-17T01:34:07;6.53;;;3.55;;
62258;SDS011;48241;48.824;10.102;2023-08-17T01:36:42;7.90;;;3.83;;
62258;SDS011;48241;48.824;10.102;2023-08-17T01:39:14;5.68;;;3.72;;
62258;SDS011;48241;48.824;10.102;2023-08-17T01:41:41;5.68;;;3.95;;
62258;SDS011;48241;48.824;10.102;2023-08-17T01:44:11;4.63;;;3.53;;
62258;SDS011;48241;48.824;10.102;2023-08-17T01:46:36;5.32;;;3.95;;
62258;SDS011;48241;48.824;10.102;2023-08-17T01:49:02;4.97;;;3.65;;
62258;SDS011;48241;48.824;10.102;2023-08-17T01:51:28;5.93;;;3.45;;
62258;SDS011;48241;48.824;10.102;2023-08-17T01:53:53;5.35;;;3.22;;
62258;SDS011;48241;48.824;10.102;2023-08-17T01:56:19;4.43;;;3.33;;
62258;SDS011;48241;48.824;10.102;2023-08-17T01:58:44;5.47;;;3.00;;
62258;SDS011;48241;48.824;10.102;2023-08-17T02:01:10;4.68;;;3.42;;
62258;SDS011;48241;48.824;10.102;2023-08-17T02:03:35;4.18;;;3.08;;
62258;SDS011;48241;48.824;10.102;2023-08-17T02:06:01;6.28;;;3.45;;
62258;SDS011;48241;48.824;10.102;2023-08-17T02:08:26;7.10;;;3.80;;
62258;SDS011;48241;48.824;10.102;2023-08-17T02:10:52;5.43;;;3.13;;
62258;SDS011;48241;48.824;10.102;2023-08-17T02:13:18;4.20;;;3.53;;
62258;SDS011;48241;48.824;10.102;2023-08-17T02:15:44;7.30;;;3.35;;
62258;SDS011;48241;48.824;10.102;2023-08-17T02:18:11;5.32;;;3.80;;
62258;SDS011;48241;48.824;10.102;2023-08-17T02:20:37;4.65;;;3.60;;
62258;SDS011;48241;48.824;10.102;2023-08-17T02:23:02;5.50;;;4.00;;
62258;SDS011;48241;48.824;10.102;2023-08-17T02:25:28;6.50;;;4.20;;
62258;SDS011;48241;48.824;10.102;2023-08-17T02:28:00;8.20;;;3.77;;
62258;SDS011;48241;48.824;10.102;2023-08-17T02:30:26;5.47;;;4.50;;
62258;SDS011;48241;48.824;10.102;2023-08-17T02:32:52;4.82;;;3.50;;
62258;SDS011;48241;48.824;10.102;2023-08-17T02:35:17;4.07;;;3.63;;
62258;SDS011;48241;48.824;10.102;2023-08-17T02:37:43;4.93;;;4.00;;
62258;SDS011;48241;48.824;10.102;2023-08-17T02:40:09;7.85;;;3.97;;
62258;SDS011;48241;48.824;10.102;2023-08-17T02:42:35;5.72;;;3.70;;
62258;SDS011;48241;48.824;10.102;2023-08-17T02:45:00;5.20;;;4.47;;
62258;SDS011;48241;48.824;10.102;2023-08-17T02:47:26;7.85;;;4.78;;
62258;SDS011;48241;48.824;10.102;2023-08-17T02:49:51;6.43;;;4.43;;
62258;SDS011;48241;48.824;10.102;2023-08-17T02:52:17;6.05;;;4.43;;
62258;SDS011;48241;48.824;10.102;2023-08-17T02:54:43;6.68;;;4.85;;
62258;SDS011;48241;48.824;10.102;2023-08-17T02:57:08;5.38;;;4.88;;
62258;SDS011;48241;48.824;10.102;2023-08-17T02:59:34;6.18;;;5.20;;
62258;SDS011;48241;48.824;10.102;2023-08-17T03:01:59;5.22;;;4.72;;
62258;SDS011;48241;48.824;10.102;2023-08-17T03:04:25;6.35;;;4.80;;
62258;SDS011;48241;48.824;10.102;2023-08-17T03:06:50;5.82;;;5.20;;
62258;SDS011;48241;48.824;10.102;2023-08-17T03:09:16;6.07;;;4.43;;
62258;SDS011;48241;48.824;10.102;2023-08-17T03:11:41;7.95;;;5.25;;
62258;SDS011;48241;48.824;10.102;2023-08-17T03:14:07;8.55;;;5.65;;
62258;SDS011;48241;48.824;10.102;2023-08-17T03:16:32;6.90;;;4.70;;
62258;SDS011;48241;48.824;10.102;2023-08-17T03:18:58;8.27;;;5.28;;
62258;SDS011;48241;48.824;10.102;2023-08-17T03:21:24;6.90;;;5.43;;
62258;SDS011;48241;48.824;10.102;2023-08-17T03:23:49;5.22;;;4.63;;
62258;SDS011;48241;48.824;10.102;2023-08-17T03:26:15;8.63;;;4.90;;
62258;SDS011;48241;48.824;10.102;2023-08-17T03:28:41;7.15;;;4.85;;
62258;SDS011;48241;48.824;10.102;2023-08-17T03:31:07;6.93;;;4.55;;
62258;SDS011;48241;48.824;10.102;2023-08-17T03:33:35;7.90;;;4.93;;
62258;SDS011;48241;48.824;10.102;2023-08-17T03:36:02;5.68;;;5.00;;
62258;SDS011;48241;48.824;10.102;2023-08-17T03:38:28;7.65;;;5.50;;
62258;SDS011;48241;48.824;10.102;2023-08-17T03:40:53;5.72;;;4.72;;
62258;SDS011;48241;48.824;10.102;2023-08-17T03:43:19;6.38;;;5.13;;
62258;SDS011;48241;48.824;10.102;2023-08-17T03:45:44;5.97;;;5.32;;
62258;SDS011;48241;48.824;10.102;2023-08-17T03:48:10;4.53;;;4.13;;
62258;SDS011;48241;48.824;10.102;2023-08-17T03:50:36;5.93;;;4.43;;
62258;SDS011;48241;48.824;10.102;2023-08-17T03:53:02;6.70;;;4.50;;
62258;SDS011;48241;48.824;10.102;2023-08-17T03:55:28;6.88;;;4.85;;
62258;SDS011;48241;48.824;10.102;2023-08-17T03:57:53;6.35;;;4.13;;
62258;SDS011;48241;48.824;10.102;2023-08-17T04:00:19;5.32;;;4.45;;
62258;SDS011;48241;48.824;10.102;2023-08-17T04:02:44;8.57;;;5.05;;
62258;SDS011;48241;48.824;10.102;2023-08-17T04:05:10;6.85;;;4.85;;
62258;SDS011;48241;48.824;10.102;2023-08-17T04:07:36;6.07;;;4.70;;
62258;SDS011;48241;48.824;10.102;2023-08-17T04:10:02;5.68;;;5.07;;
62258;SDS011;48241;48.824;10.102;2023-08-17T04:12:28;7.07;;;5.38;;
62258;SDS011;48241;48.824;10.102;2023-08-17T04:14:54;9.95;;;5.60;;
62258;SDS011;48241;48.824;10.102;2023-08-17T04:17:19;8.23;;;4.82;;
62258;SDS011;48241;48.824;10.102;2023-08-17T04:19:46;8.85;;;5.82;;
62258;SDS011;48241;48.824;10.102;2023-08-17T04:22:11;10.50;;;5.55;;
62258;SDS011;48241;48.824;10.102;2023-08-17T04:24:37;7.03;;;5.63;;
62258;SDS011;48241;48.824;10.102;2023-08-17T04:27:03;9.98;;;5.80;;
62258;SDS011;48241;48.824;10.102;2023-08-17T04:29:29;6.63;;;5.32;;
62258;SDS011;48241;48.824;10.102;2023-08-17T04:31:56;6.35;;;5.35;;
62258;SDS011;48241;48.824;10.102;2023-08-17T04:34:22;5.97;;;4.97;;
62258;SDS011;48241;48.824;10.102;2023-08-17T04:36:48;6.80;;;5.40;;
62258;SDS011;48241;48.824;10.102;2023-08-17T04:39:13;7.70;;;5.57;;
62258;SDS011;48241;48.824;10.102;2023-08-17T04:41:39;9.23;;;5.72;;
62258;SDS011;48241;48.824;10.102;2023-08-17T04:44:04;7.13;;;6.40;;
62258;SDS011;48241;48.824;10.102;2023-08-17T04:46:30;9.57;;;6.15;;
62258;SDS011;48241;48.824;10.102;2023-08-17T04:48:56;7.28;;;5.85;;
62258;SDS011;48241;48.824;10.102;2023-08-17T04:51:21;7.00;;;6.22;;
62258;SDS011;48241;48.824;10.102;2023-08-17T04:53:47;7.63;;;5.93;;
62258;SDS011;48241;48.824;10.102;2023-08-17T04:56:12;7.93;;;6.40;;
62258;SDS011;48241;48.824;10.102;2023-08-17T04:58:38;7.78;;;5.70;;
62258;SDS011;48241;48.824;10.102;2023-08-17T05:01:03;7.53;;;5.63;;
62258;SDS011;48241;48.824;10.102;2023-08-17T05:03:29;7.38;;;6.00;;
62258;SDS011;48241;48.824;10.102;2023-08-17T05:05:56;6.65;;;5.43;;
62258;SDS011;48241;48.824;10.102;2023-08-17T05:08:21;6.93;;;5.47;;
62258;SDS011;48241;48.824;10.102;2023-08-17T05:10:47;6.05;;;5.18;;
62258;SDS011;48241;48.824;10.102;2023-08-17T05:13:13;7.40;;;5.88;;
62258;SDS011;48241;48.824;10.102;2023-08-17T05:15:39;10.40;;;5.75;;
62258;SDS011;48241;48.824;10.102;2023-08-17T05:18:04;6.95;;;5.18;;
62258;SDS011;48241;48.824;10.102;2023-08-17T05:20:30;6.20;;;5.40;;
62258;SDS011;48241;48.824;10.102;2023-08-17T05:22:56;10.55;;;5.53;;
62258;SDS011;48241;48.824;10.102;2023-08-17T05:25:21;8.77;;;5.80;;
62258;SDS011;48241;48.824;10.102;2023-08-17T05:27:47;6.03;;;5.20;;
62258;SDS011;48241;48.824;10.102;2023-08-17T05:30:14;5.30;;;4.80;;
62258;SDS011;48241;48.824;10.102;2023-08-17T05:32:41;5.57;;;5.07;;
62258;SDS011;48241;48.824;10.102;2023-08-17T05:35:06;6.80;;;5.05;;
62258;SDS011;48241;48.824;10.102;2023-08-17T05:37:32;6.57;;;5.20;;
62258;SDS011;48241;48.824;10.102;2023-08-17T05:39:58;5.40;;;4.90;;
62258;SDS011;48241;48.824;10.102;2023-08-17T05:42:23;6.68;;;4.93;;
62258;SDS011;48241;48.824;10.102;2023-08-17T05:44:49;8.55;;;5.38;;
62258;SDS011;48241;48.824;10.102;2023-08-17T05:47:15;5.82;;;4.93;;
62258;SDS011;48241;48.824;10.102;2023-08-17T05:49:42;6.43;;;4.85;;
62258;SDS011;48241;48.824;10.102;2023-08-17T05:52:08;6.85;;;4.90;;
62258;SDS011;48241;48.824;10.102;2023-08-17T05:54:34;7.90;;;4.88;;
62258;SDS011;48241;48.824;10.102;2023-08-17T05:57:00;5.55;;;4.88;;
62258;SDS011;48241;48.824;10.102;2023-08-17T05:59:26;6.18;;;4.95;;
62258;SDS011;48241;48.824;10.102;2023-08-17T06:01:51;5.30;;;4.47;;
62258;SDS011;48241;48.824;10.102;2023-08-17T06:04:17;5.88;;;4.63;;
62258;SDS011;48241;48.824;10.102;2023-08-17T06:06:43;6.55;;;4.90;;
62258;SDS011;48241;48.824;10.102;2023-08-17T06:09:08;5.43;;;4.80;;
62258;SDS011;48241;48.824;10.102;2023-08-17T06:11:34;5.35;;;4.38;;
62258;SDS011;48241;48.824;10.102;2023-08-17T06:14:00;7.53;;;4.40;;
62258;SDS011;48241;48.824;10.102;2023-08-17T06:16:25;4.53;;;4.13;;
62258;SDS011;48241;48.824;10.102;2023-08-17T06:18:51;6.82;;;4.07;;
62258;SDS011;48241;48.824;10.102;2023-08-17T06:21:16;6.10;;;3.70;;
62258;SDS011;48241;48.824;10.102;2023-08-17T06:23:42;3.65;;;2.80;;
62258;SDS011;48241;48.824;10.102;2023-08-17T06:26:07;6.45;;;3.30;;
62258;SDS011;48241;48.824;10.102;2023-08-17T06:28:33;3.22;;;2.90;;
62258;SDS011;48241;48.824;10.102;2023-08-17T06:30:59;5.00;;;2.90;;
62258;SDS011;48241;48.824;10.102;2023-08-17T06:33:24;4.45;;;2.42;;
62258;SDS011;48241;48.824;10.102;2023-08-17T06:35:50;4.22;;;2.72;;
62258;SDS011;48241;48.824;10.102;2023-08-17T06:38:16;4.28;;;2.42;;
62258;SDS011;48241;48.824;10.102;2023-08-17T06:40:41;3.50;;;2.55;;
62258;SDS011;48241;48.824;10.102;2023-08-17T06:43:07;3.13;;;2.38;;
62258;SDS011;48241;48.824;10.102;2023-08-17T06:45:33;5.55;;;2.60;;
62258;SDS011;48241;48.824;10.102;2023-08-17T06:47:59;5.70;;;2.70;;
62258;SDS011;48241;48.824;10.102;2023-08-17T06:50:25;3.38;;;2.60;;
62258;SDS011;48241;48.824;10.102;2023-08-17T06:52:51;3.45;;;2.60;;
62258;SDS011;48241;48.824;10.102;2023-08-17T06:55:17;3.67;;;2.92;;
62258;SDS011;48241;48.824;10.102;2023-08-17T06:57:43;4.90;;;2.92;;
62258;SDS011;48241;48.824;10.102;2023-08-17T07:00:08;4.45;;;3.13;;
62258;SDS011;48241;48.824;10.102;2023-08-17T07:02:36;4.28;;;3.20;;
62258;SDS011;48241;48.824;10.102;2023-08-17T07:05:02;4.80;;;3.55;;
62258;SDS011;48241;48.824;10.102;2023-08-17T07:07:28;5.57;;;3.42;;
62258;SDS011;48241;48.824;10.102;2023-08-17T07:09:55;6.07;;;4.05;;
62258;SDS011;48241;48.824;10.102;2023-08-17T07:12:20;6.35;;;4.90;;
62258;SDS011;48241;48.824;10.102;2023-08-17T07:14:46;6.90;;;4.20;;
62258;SDS011;48241;48.824;10.102;2023-08-17T07:17:11;4.40;;;4.00;;
62258;SDS011;48241;48.824;10.102;2023-08-17T07:19:37;6.03;;;5.20;;
62258;SDS011;48241;48.824;10.102;2023-08-17T07:22:02;6.18;;;4.90;;
62258;SDS011;48241;48.824;10.102;2023-08-17T07:24:28;5.25;;;4.60;;
62258;SDS011;48241;48.824;10.102;2023-08-17T07:26:53;9.80;;;4.28;;
62258;SDS011;48241;48.824;10.102;2023-08-17T07:29:19;4.00;;;3.58;;
62258;SDS011;48241;48.824;10.102;2023-08-17T07:31:45;4.95;;;3.80;;
62258;SDS011;48241;48.824;10.102;2023-08-17T07:34:10;5.05;;;3.60;;
62258;SDS011;48241;48.824;10.102;2023-08-17T07:36:36;4.68;;;3.60;;
62258;SDS011;48241;48.824;10.102;2023-08-17T07:39:01;7.65;;;3.42;;
62258;SDS011;48241;48.824;10.102;2023-08-17T07:41:27;5.57;;;2.72;;
62258;SDS011;48241;48.824;10.102;2023-08-17T07:43:52;4.28;;;3.00;;
62258;SDS011;48241;48.824;10.102;2023-08-17T07:46:18;4.43;;;2.90;;
62258;SDS011;48241;48.824;10.102;2023-08-17T07:48:44;4.53;;;2.85;;
62258;SDS011;48241;48.824;10.102;2023-08-17T07:51:09;5.38;;;2.72;;
62258;SDS011;48241;48.824;10.102;2023-08-17T07:53:35;3.53;;;2.60;;
62258;SDS011;48241;48.824;10.102;2023-08-17T07:56:01;3.15;;;2.40;;
62258;SDS011;48241;48.824;10.102;2023-08-17T07:58:26;3.83;;;2.78;;
62258;SDS011;48241;48.824;10.102;2023-08-17T08:00:52;3.80;;;2.60;;
62258;SDS011;48241;48.824;10.102;2023-08-17T08:03:17;4.03;;;2.83;;
62258;SDS011;48241;48.824;10.102;2023-08-17T08:05:43;3.42;;;2.20;;
62258;SDS011;48241;48.824;10.102;2023-08-17T08:08:09;5.47;;;2.90;;
62258;SDS011;48241;48.824;10.102;2023-08-17T08:10:34;3.97;;;2.72;;
62258;SDS011;48241;48.824;10.102;2023-08-17T08:13:00;3.20;;;2.47;;
62258;SDS011;48241;48.824;10.102;2023-08-17T08:15:25;6.47;;;2.90;;
62258;SDS011;48241;48.824;10.102;2023-08-17T08:17:51;3.60;;;2.88;;
62258;SDS011;48241;48.824;10.102;2023-08-17T08:20:16;4.22;;;2.70;;
62258;SDS011;48241;48.824;10.102;2023-08-17T08:22:42;4.35;;;2.72;;
62258;SDS011;48241;48.824;10.102;2023-08-17T08:25:08;4.32;;;2.90;;
62258;SDS011;48241;48.824;10.102;2023-08-17T08:27:33;4.55;;;3.30;;
62258;SDS011;48241;48.824;10.102;2023-08-17T08:29:59;5.00;;;3.28;;
62258;SDS011;48241;48.824;10.102;2023-08-17T08:32:25;3.03;;;2.67;;
62258;SDS011;48241;48.824;10.102;2023-08-17T08:34:50;3.17;;;2.70;;
62258;SDS011;48241;48.824;10.102;2023-08-17T08:37:16;3.90;;;2.88;;
62258;SDS011;48241;48.824;10.102;2023-08-17T08:39:51;5.32;;;2.75;;
62258;SDS011;48241;48.824;10.102;2023-08-17T08:42:18;5.45;;;2.95;;
62258;SDS011;48241;48.824;10.102;2023-08-17T08:44:44;4.07;;;2.95;;
62258;SDS011;48241;48.824;10.102;2023-08-17T08:47:11;6.78;;;3.58;;
62258;SDS011;48241;48.824;10.102;2023-08-17T08:49:40;3.90;;;3.03;;
62258;SDS011;48241;48.824;10.102;2023-08-17T08:52:32;3.53;;;3.22;;
62258;SDS011;48241;48.824;10.102;2023-08-17T08:55:01;4.70;;;3.70;;
62258;SDS011;48241;48.824;10.102;2023-08-17T08:57:41;6.75;;;4.65;;
62258;SDS011;48241;48.824;10.102;2023-08-17T09:00:07;6.97;;;3.30;;
62258;SDS011;48241;48.824;10.102;2023-08-17T09:02:42;5.70;;;3.10;;
62258;SDS011;48241;48.824;10.102;2023-08-17T09:05:09;5.05;;;3.40;;
62258;SDS011;48241;48.824;10.102;2023-08-17T09:07:48;4.50;;;4.10;;
62258;SDS011;48241;48.824;10.102;2023-08-17T09:10:15;5.00;;;3.97;;
62258;SDS011;48241;48.824;10.102;2023-08-17T09:12:41;6.63;;;4.05;;
62258;SDS011;48241;48.824;10.102;2023-08-17T09:15:08;4.50;;;3.85;;
62258;SDS011;48241;48.824;10.102;2023-08-17T09:17:34;4.95;;;3.97;;
62258;SDS011;48241;48.824;10.102;2023-08-17T09:20:00;4.40;;;4.00;;
62258;SDS011;48241;48.824;10.102;2023-08-17T09:25:04;4.28;;;3.85;;
62258;SDS011;48241;48.824;10.102;2023-08-17T09:27:31;5.32;;;4.00;;
62258;SDS011;48241;48.824;10.102;2023-08-17T09:30:09;4.85;;;4.03;;
62258;SDS011;48241;48.824;10.102;2023-08-17T09:32:35;5.10;;;4.28;;
62258;SDS011;48241;48.824;10.102;2023-08-17T09:35:02;5.47;;;3.95;;
62258;SDS011;48241;48.824;10.102;2023-08-17T09:37:29;4.45;;;4.03;;
62258;SDS011;48241;48.824;10.102;2023-08-17T09:39:55;4.90;;;4.50;;
62258;SDS011;48241;48.824;10.102;2023-08-17T09:42:21;5.72;;;4.10;;
62258;SDS011;48241;48.824;10.102;2023-08-17T09:44:48;5.60;;;3.90;;
62258;SDS011;48241;48.824;10.102;2023-08-17T09:47:15;6.43;;;4.35;;
62258;SDS011;48241;48.824;10.102;2023-08-17T09:49:42;4.75;;;4.20;;
62258;SDS011;48241;48.824;10.102;2023-08-17T09:52:13;5.80;;;4.45;;
62258;SDS011;48241;48.824;10.102;2023-08-17T09:54:39;4.97;;;4.40;;
62258;SDS011;48241;48.824;10.102;2023-08-17T09:57:06;4.90;;;4.50;;
62258;SDS011;48241;48.824;10.102;2023-08-17T09:59:32;5.55;;;4.75;;
62258;SDS011;48241;48.824;10.102;2023-08-17T10:01:58;5.05;;;4.55;;
62258;SDS011;48241;48.824;10.102;2023-08-17T10:04:25;5.95;;;4.65;;
62258;SDS011;48241;48.824;10.102;2023-08-17T10:07:03;5.50;;;5.00;;
62258;SDS011;48241;48.824;10.102;2023-08-17T10:09:31;5.85;;;5.18;;
62258;SDS011;48241;48.824;10.102;2023-08-17T10:12:01;5.28;;;4.72;;
62258;SDS011;48241;48.824;10.102;2023-08-17T10:14:36;5.20;;;4.70;;
62258;SDS011;48241;48.824;10.102;2023-08-17T10:17:11;5.93;;;4.50;;
62258;SDS011;48241;48.824;10.102;2023-08-17T10:19:43;6.65;;;5.68;;
62258;SDS011;48241;48.824;10.102;2023-08-17T10:22:18;7.30;;;6.55;;
62258;SDS011;48241;48.824;10.102;2023-08-17T10:24:54;6.55;;;4.95;;
62258;SDS011;48241;48.824;10.102;2023-08-17T10:27:22;5.25;;;4.80;;
62258;SDS011;48241;48.824;10.102;2023-08-17T10:29:49;5.50;;;5.00;;
62258;SDS011;48241;48.824;10.102;2023-08-17T10:32:16;5.88;;;5.13;;
62258;SDS011;48241;48.824;10.102;2023-08-17T10:34:42;5.93;;;5.40;;
62258;SDS011;48241;48.824;10.102;2023-08-17T10:37:08;6.32;;;5.30;;
62258;SDS011;48241;48.824;10.102;2023-08-17T10:39:34;5.65;;;5.15;;
62258;SDS011;48241;48.824;10.102;2023-08-17T10:42:02;5.95;;;5.30;;
62258;SDS011;48241;48.824;10.102;2023-08-17T10:49:57;8.20;;;5.38;;
62258;SDS011;48241;48.824;10.102;2023-08-17T10:52:31;5.93;;;5.38;;
62258;SDS011;48241;48.824;10.102;2023-08-17T10:54:59;6.00;;;5.40;;
62258;SDS011;48241;48.824;10.102;2023-08-17T11:00:08;5.43;;;5.00;;
62258;SDS011;48241;48.824;10.102;2023-08-17T11:03:08;7.43;;;5.45;;
62258;SDS011;48241;48.824;10.102;2023-08-17T11:05:42;6.20;;;5.70;;
62258;SDS011;48241;48.824;10.102;2023-08-17T11:11:16;6.70;;;5.70;;
62258;SDS011;48241;48.824;10.102;2023-08-17T11:13:44;6.43;;;5.82;;
62258;SDS011;48241;48.824;10.102;2023-08-17T11:16:11;6.32;;;5.82;;
62258;SDS011;48241;48.824;10.102;2023-08-17T11:18:40;6.25;;;5.47;;
62258;SDS011;48241;48.824;10.102;2023-08-17T11:23:37;6.07;;;5.47;;
62258;SDS011;48241;48.824;10.102;2023-08-17T11:26:03;6.78;;;5.80;;
62258;SDS011;48241;48.824;10.102;2023-08-17T11:28:30;8.02;;;5.85;;
62258;SDS011;48241;48.824;10.102;2023-08-17T11:31:04;6.20;;;5.50;;
62258;SDS011;48241;48.824;10.102;2023-08-17T11:33:31;6.07;;;5.30;;
62258;SDS011;48241;48.824;10.102;2023-08-17T11:35:58;7.40;;;5.63;;
62258;SDS011;48241;48.824;10.102;2023-08-17T11:38:25;6.05;;;5.50;;
62258;SDS011;48241;48.824;10.102;2023-08-17T11:40:51;5.78;;;5.05;;
62258;SDS011;48241;48.824;10.102;2023-08-17T11:43:18;5.57;;;5.10;;
62258;SDS011;48241;48.824;10.102;2023-08-17T11:45:45;7.47;;;5.40;;
62258;SDS011;48241;48.824;10.102;2023-08-17T11:48:11;5.45;;;4.65;;
62258;SDS011;48241;48.824;10.102;2023-08-17T11:50:37;6.30;;;5.70;;
62258;SDS011;48241;48.824;10.102;2023-08-17T11:53:04;5.53;;;4.93;;
62258;SDS011;48241;48.824;10.102;2023-08-17T11:55:30;5.63;;;5.03;;
62258;SDS011;48241;48.824;10.102;2023-08-17T11:57:56;5.75;;;5.22;;
62258;SDS011;48241;48.824;10.102;2023-08-17T12:00:22;5.70;;;5.15;;
62258;SDS011;48241;48.824;10.102;2023-08-17T12:02:49;5.80;;;5.20;;
62258;SDS011;48241;48.824;10.102;2023-08-17T12:05:20;4.65;;;4.25;;
62258;SDS011;48241;48.824;10.102;2023-08-17T12:07:49;5.43;;;4.57;;
62258;SDS011;48241;48.824;10.102;2023-08-17T12:10:15;5.22;;;4.82;;
62258;SDS011;48241;48.824;10.102;2023-08-17T12:12:42;7.03;;;4.63;;
62258;SDS011;48241;48.824;10.102;2023-08-17T12:15:09;4.85;;;4.45;;
62258;SDS011;48241;48.824;10.102;2023-08-17T12:17:36;5.57;;;4.35;;
62258;SDS011;48241;48.824;10.102;2023-08-17T12:20:14;5.00;;;4.55;;
62258;SDS011;48241;48.824;10.102;2023-08-17T12:22:41;4.90;;;4.60;;
62258;SDS011;48241;48.824;10.102;2023-08-17T12:25:07;4.68;;;4.28;;
62258;SDS011;48241;48.824;10.102;2023-08-17T12:27:35;5.63;;;4.38;;
62258;SDS011;48241;48.824;10.102;2023-08-17T12:30:01;6.93;;;4.68;;
62258;SDS011;48241;48.824;10.102;2023-08-17T12:32:26;7.05;;;4.65;;
62258;SDS011;48241;48.824;10.102;2023-08-17T12:34:52;7.32;;;4.70;;
62258;SDS011;48241;48.824;10.102;2023-08-17T12:37:18;4.82;;;4.30;;
62258;SDS011;48241;48.824;10.102;2023-08-17T12:39:45;5.15;;;4.68;;
62258;SDS011;48241;48.824;10.102;2023-08-17T12:42:12;5.55;;;4.70;;
62258;SDS011;48241;48.824;10.102;2023-08-17T12:44:43;4.90;;;4.40;;
62258;SDS011;48241;48.824;10.102;2023-08-17T12:47:09;6.20;;;4.57;;
62258;SDS011;48241;48.824;10.102;2023-08-17T12:49:35;5.05;;;4.55;;
62258;SDS011;48241;48.824;10.102;2023-08-17T12:52:01;6.53;;;4.65;;
62258;SDS011;48241;48.824;10.102;2023-08-17T12:54:26;4.60;;;4.20;;
62258;SDS011;48241;48.824;10.102;2023-08-17T12:56:52;5.40;;;4.43;;
62258;SDS011;48241;48.824;10.102;2023-08-17T12:59:17;4.85;;;4.35;;
62258;SDS011;48241;48.824;10.102;2023-08-17T13:01:43;5.93;;;4.72;;
62258;SDS011;48241;48.824;10.102;2023-08-17T13:04:09;5.18;;;4.38;;
62258;SDS011;48241;48.824;10.102;2023-08-17T13:06:34;5.55;;;4.53;;
62258;SDS011;48241;48.824;10.102;2023-08-17T13:09:00;5.30;;;4.80;;
62258;SDS011;48241;48.824;10.102;2023-08-17T13:11:25;5.57;;;4.88;;
62258;SDS011;48241;48.824;10.102;2023-08-17T13:13:51;5.72;;;5.07;;
62258;SDS011;48241;48.824;10.102;2023-08-17T13:16:16;6.18;;;5.28;;
62258;SDS011;48241;48.824;10.102;2023-08-17T13:18:42;5.72;;;5.13;;
62258;SDS011;48241;48.824;10.102;2023-08-17T13:21:07;7.90;;;5.57;;
62258;SDS011;48241;48.824;10.102;2023-08-17T13:23:33;7.13;;;5.93;;
62258;SDS011;48241;48.824;10.102;2023-08-17T13:25:58;7.15;;;5.63;;
62258;SDS011;48241;48.824;10.102;2023-08-17T13:28:24;6.15;;;5.53;;
62258;SDS011;48241;48.824;10.102;2023-08-17T13:30:50;6.70;;;5.75;;
62258;SDS011;48241;48.824;10.102;2023-08-17T13:33:15;6.32;;;5.72;;
62258;SDS011;48241;48.824;10.102;2023-08-17T13:35:41;9.32;;;6.18;;
62258;SDS011;48241;48.824;10.102;2023-08-17T13:38:07;8.55;;;6.57;;
62258;SDS011;48241;48.824;10.102;2023-08-17T13:40:33;7.40;;;6.80;;
62258;SDS011;48241;48.824;10.102;2023-08-17T13:43:01;7.75;;;6.93;;
62258;SDS011;48241;48.824;10.102;2023-08-17T13:45:28;7.78;;;6.85;;
62258;SDS011;48241;48.824;10.102;2023-08-17T13:47:54;7.70;;;7.00;;
62258;SDS011;48241;48.824;10.102;2023-08-17T13:50:19;9.05;;;7.13;;
62258;SDS011;48241;48.824;10.102;2023-08-17T13:52:45;8.32;;;7.22;;
62258;SDS011;48241;48.824;10.102;2023-08-17T13:55:11;8.88;;;7.43;;
62258;SDS011;48241;48.824;10.102;2023-08-17T13:57:37;7.82;;;7.10;;
62258;SDS011;48241;48.824;10.102;2023-08-17T14:00:02;8.18;;;6.72;;
62258;SDS011;48241;48.824;10.102;2023-08-17T14:02:32;8.48;;;6.80;;
62258;SDS011;48241;48.824;10.102;2023-08-17T14:04:57;7.13;;;6.43;;
62258;SDS011;48241;48.824;10.102;2023-08-17T14:07:23;7.65;;;6.95;;
62258;SDS011;48241;48.824;10.102;2023-08-17T14:09:48;7.63;;;6.80;;
62258;SDS011;48241;48.824;10.102;2023-08-17T14:12:14;7.55;;;6.88;;
62258;SDS011;48241;48.824;10.102;2023-08-17T14:14:39;7.35;;;6.43;;
62258;SDS011;48241;48.824;10.102;2023-08-17T14:17:05;7.70;;;6.55;;
62258;SDS011;48241;48.824;10.102;2023-08-17T14:19:30;7.05;;;6.35;;
62258;SDS011;48241;48.824;10.102;2023-08-17T14:21:56;7.38;;;6.05;;
62258;SDS011;48241;48.824;10.102;2023-08-17T14:24:22;7.35;;;6.65;;
62258;SDS011;48241;48.824;10.102;2023-08-17T14:26:47;9.13;;;6.43;;
62258;SDS011;48241;48.824;10.102;2023-08-17T14:29:13;8.63;;;6.53;;
62258;SDS011;48241;48.824;10.102;2023-08-17T14:31:39;7.68;;;6.00;;
62258;SDS011;48241;48.824;10.102;2023-08-17T14:34:04;6.60;;;5.95;;
62258;SDS011;48241;48.824;10.102;2023-08-17T14:36:30;6.97;;;6.38;;
62258;SDS011;48241;48.824;10.102;2023-08-17T14:38:55;7.45;;;6.18;;
62258;SDS011;48241;48.824;10.102;2023-08-17T14:41:21;6.78;;;6.18;;
62258;SDS011;48241;48.824;10.102;2023-08-17T14:43:46;7.65;;;6.20;;
62258;SDS011;48241;48.824;10.102;2023-08-17T14:46:12;9.30;;;6.95;;
62258;SDS011;48241;48.824;10.102;2023-08-17T14:48:37;7.90;;;5.82;;
62258;SDS011;48241;48.824;10.102;2023-08-17T14:51:03;8.60;;;7.63;;